Time;durP1;ratioP1;P1;durP2;ratioP2;P2;SDS_P1;SDS_P2;PMS_P1;PMS_P2;Temp;Humidity;BMP_temperature;BMP_pressure;BME280_temperature;BME280_humidity;BME280_pressure;Samples;Min_cycle;Max_cycle;Signal;HPM_P1;HPM_P2
2023/08/08 00:00:06;;;;;;;7.13;1.98;;;13.00;99.90;;;;;;5049704;28;20044;-63
2023/08/08 00:02:32;;;;;;;7.07;2.13;;;12.90;99.90;;;;;;5060696;28;20045;-62
2023/08/08 00:04:57;;;;;;;9.45;2.58;;;12.90;99.90;;;;;;5033199;28;20060;-62
2023/08/08 00:07:23;;;;;;;5.53;1.98;;;12.80;99.90;;;;;;5053050;28;20171;-62
2023/08/08 00:09:49;;;;;;;6.70;2.10;;;12.70;99.90;;;;;;5050905;28;20032;-63
2023/08/08 00:12:14;;;;;;;7.00;2.33;;;12.70;99.90;;;;;;5033591;28;20461;-63
2023/08/08 00:14:40;;;;;;;5.28;1.83;;;12.70;99.90;;;;;;5046539;28;20063;-61
2023/08/08 00:17:06;;;;;;;6.70;1.80;;;12.70;99.90;;;;;;5031399;28;20398;-62
2023/08/08 00:19:31;;;;;;;6.00;1.75;;;12.70;99.90;;;;;;5034656;28;20048;-62
2023/08/08 00:21:57;;;;;;;7.05;2.08;;;12.70;99.90;;;;;;5045962;28;20037;-62
2023/08/08 00:24:23;;;;;;;7.13;1.70;;;12.70;99.90;;;;;;5027282;28;20049;-63
2023/08/08 00:26:48;;;;;;;4.13;1.63;;;12.80;99.90;;;;;;5046951;28;20540;-62
2023/08/08 00:29:14;;;;;;;6.20;1.80;;;12.80;99.90;;;;;;5052191;28;20236;-63
2023/08/08 00:31:40;;;;;;;4.68;1.90;;;12.80;99.90;;;;;;5051300;28;20895;-62
2023/08/08 00:34:05;;;;;;;7.28;1.90;;;12.80;99.90;;;;;;5034342;28;20072;-63
2023/08/08 00:36:31;;;;;;;6.90;2.10;;;12.90;99.90;;;;;;5034108;28;20048;-63
2023/08/08 00:38:57;;;;;;;5.05;1.85;;;12.80;99.90;;;;;;5044784;28;20037;-62
2023/08/08 00:41:22;;;;;;;7.63;2.13;;;12.80;99.90;;;;;;5050575;28;20036;-62
2023/08/08 00:43:49;;;;;;;6.38;2.00;;;12.90;99.90;;;;;;5051502;28;20033;-62
2023/08/08 00:46:15;;;;;;;11.75;2.30;;;12.90;99.90;;;;;;5031597;28;20040;-62
2023/08/08 00:48:41;;;;;;;8.55;2.58;;;12.80;99.90;;;;;;5044595;28;20521;-61
2023/08/08 00:51:07;;;;;;;5.50;1.80;;;12.90;99.90;;;;;;5061488;28;20069;-64
2023/08/08 00:53:33;;;;;;;6.75;1.90;;;12.80;99.90;;;;;;5046694;28;20091;-62
2023/08/08 00:55:59;;;;;;;4.95;1.80;;;12.90;99.90;;;;;;5047414;28;20117;-63
2023/08/08 00:58:25;;;;;;;5.35;1.92;;;12.90;99.90;;;;;;5046755;28;21899;-63
2023/08/08 01:00:54;;;;;;;7.38;2.03;;;12.90;99.90;;;;;;5048938;28;20029;-63
2023/08/08 01:03:20;;;;;;;5.20;1.85;;;12.90;99.90;;;;;;5050492;28;20455;-62
2023/08/08 01:06:01;;;;;;;6.22;2.35;;;12.80;99.90;;;;;;5051203;28;20086;-63
2023/08/08 01:08:37;;;;;;;6.05;2.20;;;12.80;99.90;;;;;;5059742;28;20139;-62
2023/08/08 01:11:03;;;;;;;7.68;2.20;;;12.80;99.90;;;;;;5047691;28;20075;-63
2023/08/08 01:13:31;;;;;;;5.60;1.70;;;12.90;99.90;;;;;;5051179;28;20059;-63
2023/08/08 01:15:59;;;;;;;8.23;1.92;;;12.80;99.90;;;;;;5060992;28;20392;-63
2023/08/08 01:18:25;;;;;;;6.47;2.03;;;12.80;99.90;;;;;;5049934;28;20050;-62
2023/08/08 01:20:52;;;;;;;6.40;2.10;;;12.90;99.90;;;;;;5034223;28;20124;-62
2023/08/08 01:23:32;;;;;;;8.10;2.30;;;12.90;99.90;;;;;;5047830;28;20041;-62
2023/08/08 01:26:00;;;;;;;10.07;2.13;;;12.90;99.90;;;;;;5049493;28;20035;-63
2023/08/08 01:28:26;;;;;;;5.45;1.90;;;12.90;99.90;;;;;;5047226;28;20029;-63
2023/08/08 01:30:51;;;;;;;7.95;2.22;;;12.90;99.90;;;;;;5045385;28;20037;-63
2023/08/08 01:33:17;;;;;;;6.97;2.17;;;12.90;99.90;;;;;;5048583;28;20418;-63
2023/08/08 01:36:02;;;;;;;5.07;1.83;;;12.90;99.90;;;;;;5054813;28;20041;-63
2023/08/08 01:38:36;;;;;;;4.05;1.80;;;12.90;99.90;;;;;;5035078;28;20063;-62
2023/08/08 01:41:04;;;;;;;6.40;2.10;;;12.90;99.90;;;;;;5047698;28;20063;-61
2023/08/08 01:43:32;;;;;;;10.00;2.47;;;13.00;99.90;;;;;;5053823;28;20447;-62
2023/08/08 01:46:00;;;;;;;5.55;1.90;;;13.00;99.90;;;;;;5049843;28;20503;-62
2023/08/08 01:48:28;;;;;;;6.18;2.15;;;13.00;99.90;;;;;;5053485;28;20503;-62
2023/08/08 01:50:53;;;;;;;5.20;2.22;;;13.00;99.90;;;;;;5029808;28;20364;-63
2023/08/08 01:53:19;;;;;;;4.68;1.80;;;13.00;99.90;;;;;;5039017;28;20056;-61
2023/08/08 01:55:45;;;;;;;9.27;2.25;;;13.10;99.90;;;;;;5046784;28;20047;-63
2023/08/08 01:58:10;;;;;;;5.75;1.55;;;13.10;99.90;;;;;;5034197;28;20041;-62
2023/08/08 02:00:36;;;;;;;5.68;1.80;;;13.20;99.90;;;;;;5049142;28;20038;-64
2023/08/08 02:03:02;;;;;;;5.38;1.95;;;13.20;99.90;;;;;;5032978;28;20127;-62
2023/08/08 02:05:28;;;;;;;5.43;1.95;;;13.30;99.90;;;;;;5044756;28;20527;-63
2023/08/08 02:07:53;;;;;;;5.38;1.45;;;13.30;99.90;;;;;;5044613;28;20033;-63
2023/08/08 02:10:19;;;;;;;7.25;2.05;;;13.30;99.90;;;;;;5044598;28;20044;-62
2023/08/08 02:12:45;;;;;;;8.05;2.00;;;13.30;99.90;;;;;;5050596;28;20055;-63
2023/08/08 02:15:10;;;;;;;7.03;1.67;;;13.40;99.90;;;;;;5032243;28;20052;-63
2023/08/08 02:17:38;;;;;;;5.38;1.73;;;13.40;99.90;;;;;;5049131;28;20418;-64
2023/08/08 02:20:05;;;;;;;6.13;1.90;;;13.50;99.90;;;;;;5047105;28;20044;-63
2023/08/08 02:22:30;;;;;;;10.35;1.92;;;13.50;99.90;;;;;;5045015;28;20048;-65
2023/08/08 02:24:56;;;;;;;9.38;2.25;;;13.50;99.90;;;;;;5046082;28;20041;-62
2023/08/08 02:27:22;;;;;;;7.80;1.92;;;13.50;99.90;;;;;;5048661;28;20086;-66
2023/08/08 02:29:47;;;;;;;6.55;1.65;;;13.50;99.90;;;;;;5049838;28;20471;-62
2023/08/08 02:32:13;;;;;;;5.18;1.58;;;13.40;99.90;;;;;;5045516;28;20491;-62
2023/08/08 02:34:39;;;;;;;8.02;1.90;;;13.40;99.90;;;;;;5048550;28;20054;-63
2023/08/08 02:37:04;;;;;;;4.82;1.40;;;13.30;99.90;;;;;;5032161;28;20052;-64
2023/08/08 02:39:30;;;;;;;6.78;1.95;;;13.30;99.90;;;;;;5032272;28;20053;-65
2023/08/08 02:41:56;;;;;;;6.05;1.23;;;13.30;99.90;;;;;;5041980;28;20048;-64
2023/08/08 02:44:22;;;;;;;4.13;1.55;;;13.40;99.90;;;;;;5052962;28;20195;-61
2023/08/08 02:46:48;;;;;;;6.43;1.30;;;13.40;99.90;;;;;;5045361;28;20041;-62
2023/08/08 02:49:14;;;;;;;8.27;1.50;;;13.40;99.90;;;;;;5054473;28;20091;-63
2023/08/08 02:51:40;;;;;;;5.85;1.20;;;13.40;99.90;;;;;;5063891;28;20071;-63
2023/08/08 02:54:06;;;;;;;5.45;1.27;;;13.50;99.90;;;;;;5037691;28;20041;-62
2023/08/08 02:56:31;;;;;;;5.15;1.50;;;13.50;99.90;;;;;;5055186;28;20044;-65
2023/08/08 02:58:58;;;;;;;5.05;1.13;;;13.50;99.90;;;;;;5031587;28;20069;-63
2023/08/08 03:01:23;;;;;;;7.10;1.17;;;13.50;99.90;;;;;;5033053;28;20041;-63
2023/08/08 03:03:49;;;;;;;4.82;1.08;;;13.40;99.90;;;;;;5050357;28;20157;-63
2023/08/08 03:06:15;;;;;;;5.25;0.95;;;13.40;99.90;;;;;;5050605;28;20104;-62
2023/08/08 03:08:41;;;;;;;6.63;0.93;;;13.40;99.90;;;;;;5053632;28;20476;-63
2023/08/08 03:11:06;;;;;;;7.07;1.70;;;13.40;99.90;;;;;;5041541;28;20375;-62
2023/08/08 03:13:32;;;;;;;5.50;1.17;;;13.30;99.90;;;;;;5037367;28;20056;-63
2023/08/08 03:15:58;;;;;;;7.47;1.50;;;13.30;99.90;;;;;;5043261;28;20037;-63
2023/08/08 03:18:25;;;;;;;4.85;1.10;;;13.30;99.90;;;;;;5029998;28;20037;-63
2023/08/08 03:20:52;;;;;;;6.25;1.40;;;13.30;99.90;;;;;;5053655;28;20415;-62
2023/08/08 03:23:18;;;;;;;7.25;1.33;;;13.30;99.90;;;;;;5052447;28;20132;-64
2023/08/08 03:25:44;;;;;;;4.00;0.98;;;13.40;99.90;;;;;;5050763;28;20037;-63
2023/08/08 03:28:09;;;;;;;4.93;1.17;;;13.40;99.90;;;;;;5053053;28;20399;-64
2023/08/08 03:30:38;;;;;;;7.55;1.10;;;13.40;99.90;;;;;;5051464;28;20111;-63
2023/08/08 03:33:04;;;;;;;7.68;1.65;;;13.50;99.90;;;;;;5048094;28;20511;-63
2023/08/08 03:35:30;;;;;;;9.18;1.10;;;13.50;99.90;;;;;;5050965;28;20053;-63
2023/08/08 03:37:56;;;;;;;7.32;1.40;;;13.50;99.90;;;;;;5053322;28;20046;-62
2023/08/08 03:40:21;;;;;;;7.88;1.10;;;13.50;99.90;;;;;;5046775;28;20346;-63
2023/08/08 03:42:47;;;;;;;5.72;1.15;;;13.50;99.90;;;;;;5054766;28;20124;-63
2023/08/08 03:45:13;;;;;;;4.05;0.80;;;13.50;99.90;;;;;;5034639;28;20894;-64
2023/08/08 03:47:38;;;;;;;7.20;0.90;;;13.40;99.90;;;;;;5054438;28;20074;-63
2023/08/08 03:50:06;;;;;;;5.93;1.00;;;13.40;99.90;;;;;;5034976;28;20057;-62
2023/08/08 03:52:35;;;;;;;3.92;0.90;;;13.40;99.90;;;;;;5033889;28;20132;-64
2023/08/08 03:55:04;;;;;;;4.90;1.00;;;13.30;99.90;;;;;;5050135;28;20101;-63
2023/08/08 03:57:31;;;;;;;5.10;1.10;;;13.30;99.90;;;;;;5054396;28;20048;-65
2023/08/08 03:59:57;;;;;;;5.70;0.85;;;13.30;99.90;;;;;;5048525;28;20048;-63
2023/08/08 04:02:24;;;;;;;4.75;0.82;;;13.30;99.90;;;;;;5053441;28;20052;-64
2023/08/08 04:04:50;;;;;;;4.43;0.77;;;13.20;99.90;;;;;;5036640;28;20509;-64
2023/08/08 04:07:16;;;;;;;4.50;0.98;;;13.20;99.90;;;;;;5036073;28;20037;-64
2023/08/08 04:09:42;;;;;;;6.57;1.20;;;13.20;99.90;;;;;;5050925;28;20551;-62
2023/08/08 04:12:08;;;;;;;3.83;0.82;;;13.20;99.90;;;;;;5049246;28;20045;-63
2023/08/08 04:14:33;;;;;;;4.70;0.70;;;13.10;99.90;;;;;;5050153;28;20172;-65
2023/08/08 04:16:59;;;;;;;4.32;0.85;;;13.00;99.90;;;;;;5053689;28;20129;-63
2023/08/08 04:19:25;;;;;;;6.00;1.00;;;13.00;99.90;;;;;;5035336;28;20499;-62
2023/08/08 04:21:51;;;;;;;6.15;0.93;;;13.00;99.90;;;;;;5053180;28;20059;-64
2023/08/08 04:24:17;;;;;;;4.30;0.88;;;13.00;99.90;;;;;;5053607;28;20072;-64
2023/08/08 04:26:43;;;;;;;7.55;0.75;;;12.90;99.90;;;;;;5051380;28;20178;-63
2023/08/08 04:29:08;;;;;;;3.92;0.88;;;13.00;99.90;;;;;;5028770;28;20033;-64
2023/08/08 04:31:34;;;;;;;4.30;0.90;;;13.00;99.90;;;;;;5034440;28;20052;-63
2023/08/08 04:34:01;;;;;;;4.40;1.00;;;13.00;99.90;;;;;;5051451;28;20226;-65
2023/08/08 04:36:27;;;;;;;6.70;1.15;;;12.90;99.90;;;;;;5048132;28;20086;-65
2023/08/08 04:38:53;;;;;;;5.22;1.40;;;13.00;99.90;;;;;;5056058;28;20037;-63
2023/08/08 04:41:19;;;;;;;7.65;1.17;;;13.00;99.90;;;;;;5051919;28;20060;-63
2023/08/08 04:43:44;;;;;;;5.43;0.98;;;13.00;99.90;;;;;;5048943;28;20503;-64
2023/08/08 04:46:10;;;;;;;6.80;0.80;;;12.90;99.90;;;;;;5048106;28;20040;-64
2023/08/08 04:48:37;;;;;;;5.78;0.95;;;12.90;99.90;;;;;;5016683;28;20064;-65
2023/08/08 04:51:04;;;;;;;5.80;0.70;;;12.90;99.90;;;;;;5047658;28;20258;-62
2023/08/08 04:53:30;;;;;;;7.63;1.00;;;12.90;99.90;;;;;;5046356;28;20048;-62
2023/08/08 04:55:56;;;;;;;3.40;0.57;;;12.90;99.90;;;;;;5033666;28;20364;-63
2023/08/08 04:58:21;;;;;;;3.33;0.55;;;13.00;99.90;;;;;;5021867;28;20735;-64
2023/08/08 05:00:47;;;;;;;5.97;0.70;;;13.00;99.90;;;;;;5034689;28;20068;-64
2023/08/08 05:03:13;;;;;;;3.47;0.60;;;12.90;99.90;;;;;;5021408;28;20048;-64
2023/08/08 05:05:39;;;;;;;3.58;0.50;;;13.00;99.90;;;;;;5021360;28;20581;-63
2023/08/08 05:08:05;;;;;;;4.35;0.55;;;13.00;99.90;;;;;;5037732;28;20268;-65
2023/08/08 05:10:31;;;;;;;3.72;0.60;;;13.00;99.90;;;;;;5012082;28;20082;-63
2023/08/08 05:12:57;;;;;;;3.15;0.70;;;13.10;99.90;;;;;;5021566;28;20756;-63
2023/08/08 05:15:23;;;;;;;3.97;0.80;;;13.10;99.90;;;;;;4994983;28;20059;-63
2023/08/08 05:17:48;;;;;;;5.63;0.63;;;13.20;99.90;;;;;;5018687;28;20036;-63
2023/08/08 05:20:15;;;;;;;6.43;0.60;;;13.30;99.90;;;;;;5035682;28;20079;-63
2023/08/08 05:22:40;;;;;;;2.72;0.50;;;13.40;99.90;;;;;;4997691;28;20044;-63
2023/08/08 05:25:07;;;;;;;4.97;1.00;;;13.50;99.90;;;;;;5016676;28;20068;-64
2023/08/08 05:27:32;;;;;;;3.58;0.43;;;13.50;99.90;;;;;;5017898;28;20052;-63
2023/08/08 05:29:58;;;;;;;4.47;0.52;;;13.60;99.90;;;;;;5017291;28;20041;-65
2023/08/08 05:32:24;;;;;;;5.65;0.52;;;13.70;99.90;;;;;;5040976;28;20103;-64
2023/08/08 05:34:51;;;;;;;6.63;0.77;;;13.90;99.90;;;;;;5018267;28;20441;-64
2023/08/08 05:37:16;;;;;;;3.33;0.70;;;13.90;99.90;;;;;;5035291;28;20564;-63
2023/08/08 05:39:42;;;;;;;3.42;0.50;;;14.00;99.90;;;;;;5019487;28;20040;-65
2023/08/08 05:42:08;;;;;;;4.65;0.60;;;14.20;99.90;;;;;;5036390;28;20040;-64
2023/08/08 05:44:34;;;;;;;3.00;0.40;;;14.30;99.90;;;;;;4999991;28;20479;-63
2023/08/08 05:46:59;;;;;;;8.13;0.75;;;14.50;99.90;;;;;;5037714;28;20043;-64
2023/08/08 05:49:25;;;;;;;3.20;0.38;;;14.50;99.90;;;;;;5021193;28;20405;-63
2023/08/08 05:51:50;;;;;;;7.53;0.60;;;14.60;99.90;;;;;;5019024;28;20044;-65
2023/08/08 05:54:16;;;;;;;4.13;0.60;;;14.60;99.90;;;;;;5019301;28;20443;-64
2023/08/08 05:56:42;;;;;;;5.30;0.40;;;14.60;99.90;;;;;;5014204;28;20110;-64
2023/08/08 05:59:07;;;;;;;6.00;0.82;;;14.60;99.90;;;;;;5013728;28;20049;-64
2023/08/08 06:01:34;;;;;;;5.25;0.60;;;14.60;99.90;;;;;;5015768;28;20060;-64
2023/08/08 06:04:00;;;;;;;5.13;0.60;;;14.40;99.90;;;;;;5037275;28;20041;-65
2023/08/08 06:06:27;;;;;;;10.02;0.82;;;14.30;99.90;;;;;;5020697;28;20418;-64
2023/08/08 06:08:52;;;;;;;6.32;0.60;;;14.30;99.90;;;;;;5039704;28;20541;-64
2023/08/08 06:11:18;;;;;;;4.47;0.60;;;14.30;99.90;;;;;;5019416;28;20350;-63
2023/08/08 06:13:44;;;;;;;6.50;0.50;;;14.30;99.90;;;;;;5034554;28;20498;-64
2023/08/08 06:16:10;;;;;;;3.88;0.40;;;14.30;99.90;;;;;;5017669;28;20049;-63
2023/08/08 06:18:37;;;;;;;6.82;1.05;;;14.40;99.90;;;;;;5036880;28;20549;-62
2023/08/08 06:21:02;;;;;;;7.18;0.80;;;14.50;99.90;;;;;;5041523;28;20067;-63
2023/08/08 06:23:28;;;;;;;5.43;0.50;;;14.60;99.90;;;;;;5040734;28;20733;-63
2023/08/08 06:25:54;;;;;;;5.72;0.45;;;14.70;99.90;;;;;;5035171;28;20051;-63
2023/08/08 06:28:20;;;;;;;5.53;0.60;;;14.80;99.90;;;;;;5019835;28;20040;-63
2023/08/08 06:30:45;;;;;;;3.05;0.40;;;15.00;99.90;;;;;;5037256;28;20532;-64
2023/08/08 06:33:11;;;;;;;6.60;0.60;;;15.20;99.90;;;;;;5025498;28;20040;-63
2023/08/08 06:35:37;;;;;;;4.35;0.47;;;15.60;99.90;;;;;;5036808;28;20040;-65
2023/08/08 06:38:02;;;;;;;9.20;0.60;;;15.90;99.90;;;;;;5039391;28;20064;-64
2023/08/08 06:40:28;;;;;;;3.63;0.40;;;16.00;99.90;;;;;;5033480;28;20079;-63
2023/08/08 06:42:55;;;;;;;5.90;0.40;;;16.00;99.90;;;;;;5037569;28;20044;-64
2023/08/08 06:45:21;;;;;;;3.55;0.47;;;16.10;99.90;;;;;;5022036;28;20041;-63
2023/08/08 06:47:47;;;;;;;4.65;0.63;;;16.40;99.90;;;;;;5041547;28;20036;-62
2023/08/08 06:50:13;;;;;;;6.57;0.35;;;16.60;99.90;;;;;;5040553;28;20688;-64
2023/08/08 06:52:38;;;;;;;4.50;0.50;;;16.60;99.90;;;;;;5005118;28;20132;-63
2023/08/08 06:55:05;;;;;;;8.00;0.47;;;16.70;99.90;;;;;;5038202;28;20072;-63
2023/08/08 06:57:35;;;;;;;3.47;0.50;;;16.80;99.90;;;;;;5041432;28;21093;-63
2023/08/08 07:00:01;;;;;;;5.32;0.57;;;17.00;99.90;;;;;;5038833;28;20032;-63
2023/08/08 07:02:27;;;;;;;4.65;0.65;;;17.20;99.90;;;;;;5022860;28;20045;-63
2023/08/08 07:04:52;;;;;;;5.07;0.47;;;17.30;99.90;;;;;;5035237;28;20525;-65
2023/08/08 07:07:18;;;;;;;6.07;0.70;;;17.50;99.90;;;;;;5038648;28;20102;-63
2023/08/08 07:09:44;;;;;;;5.97;0.50;;;17.50;99.90;;;;;;5014828;28;20227;-63
2023/08/08 07:12:09;;;;;;;3.75;0.40;;;17.40;99.90;;;;;;4997768;28;20190;-63
2023/08/08 07:14:35;;;;;;;5.00;0.40;;;17.30;99.90;;;;;;5026618;28;20056;-64
2023/08/08 07:17:03;;;;;;;6.07;0.52;;;17.20;99.90;;;;;;5019927;28;20048;-64
2023/08/08 07:19:28;;;;;;;5.35;0.68;;;17.40;99.90;;;;;;5044264;28;20102;-64
2023/08/08 07:21:54;;;;;;;5.60;0.45;;;17.60;99.90;;;;;;5021546;28;20040;-63
2023/08/08 07:24:20;;;;;;;5.32;0.50;;;17.40;99.90;;;;;;5023722;28;20275;-63
2023/08/08 07:26:46;;;;;;;5.15;0.50;;;17.40;99.90;;;;;;5023868;28;20045;-65
2023/08/08 07:29:12;;;;;;;6.10;0.40;;;17.20;99.90;;;;;;5025676;28;20677;-64
2023/08/08 07:31:39;;;;;;;4.10;0.30;;;17.40;99.90;;;;;;5019650;28;20127;-64
2023/08/08 07:34:04;;;;;;;4.05;0.40;;;17.60;99.90;;;;;;5037577;28;20094;-63
2023/08/08 07:36:30;;;;;;;6.32;0.40;;;17.80;99.90;;;;;;5016820;28;20044;-64
2023/08/08 07:38:59;;;;;;;2.92;0.20;;;17.90;99.90;;;;;;5037840;28;20173;-64
2023/08/08 07:41:30;;;;;;;6.10;0.38;;;17.90;99.90;;;;;;5003132;28;20041;-64
2023/08/08 07:43:55;;;;;;;3.17;0.40;;;17.80;99.90;;;;;;5036215;28;20216;-63
2023/08/08 07:46:21;;;;;;;3.00;0.30;;;17.80;99.90;;;;;;5040762;28;20118;-63
2023/08/08 07:48:47;;;;;;;3.58;0.40;;;17.70;99.90;;;;;;5023257;28;20076;-63
2023/08/08 07:51:16;;;;;;;4.90;0.32;;;17.80;99.90;;;;;;5020283;28;20064;-64
2023/08/08 07:53:43;;;;;;;5.53;0.50;;;18.00;99.90;;;;;;5039618;28;20036;-64
2023/08/08 07:56:08;;;;;;;2.95;0.25;;;18.00;99.90;;;;;;5003900;28;20498;-63
2023/08/08 07:58:34;;;;;;;4.90;0.40;;;18.10;99.90;;;;;;5030339;28;20575;-64
2023/08/08 08:01:00;;;;;;;3.40;0.40;;;18.00;99.90;;;;;;5040053;28;20178;-63
2023/08/08 08:03:27;;;;;;;4.07;0.30;;;17.90;99.90;;;;;;5039685;28;20569;-64
2023/08/08 08:05:53;;;;;;;3.50;0.28;;;17.80;99.90;;;;;;5038109;28;20033;-64
2023/08/08 08:08:18;;;;;;;5.10;0.40;;;17.80;99.90;;;;;;5020755;28;20070;-62
2023/08/08 08:10:45;;;;;;;5.78;0.50;;;17.60;99.90;;;;;;5040036;28;20517;-64
2023/08/08 08:13:11;;;;;;;7.05;0.40;;;17.30;99.90;;;;;;5035736;28;20323;-63
2023/08/08 08:15:38;;;;;;;6.80;0.82;;;17.20;99.90;;;;;;5035877;28;20581;-63
2023/08/08 08:18:04;;;;;;;3.88;0.55;;;17.10;99.90;;;;;;5036594;28;20040;-65
2023/08/08 08:20:29;;;;;;;5.18;0.40;;;17.10;99.90;;;;;;5038687;28;20112;-62
2023/08/08 08:22:55;;;;;;;4.50;0.40;;;17.10;99.90;;;;;;5041984;28;20119;-63
2023/08/08 08:25:21;;;;;;;4.03;0.47;;;17.30;99.90;;;;;;5038690;28;20041;-64
2023/08/08 08:27:46;;;;;;;5.10;0.30;;;17.40;99.90;;;;;;5036519;28;20601;-61
2023/08/08 08:30:13;;;;;;;4.13;0.30;;;17.50;99.90;;;;;;5038041;28;20376;-64
2023/08/08 08:32:41;;;;;;;5.57;0.30;;;17.50;99.90;;;;;;5038502;28;20067;-64
2023/08/08 08:35:08;;;;;;;3.00;0.30;;;17.50;99.90;;;;;;5036219;28;20290;-61
2023/08/08 08:37:34;;;;;;;3.95;0.40;;;17.60;99.90;;;;;;5023538;28;20460;-64
2023/08/08 08:40:00;;;;;;;4.63;0.30;;;17.60;99.90;;;;;;5002030;28;20116;-64
2023/08/08 08:42:29;;;;;;;2.17;0.30;;;17.50;99.90;;;;;;5035182;28;20124;-63
2023/08/08 08:45:01;;;;;;;5.78;0.75;;;17.50;99.90;;;;;;5014497;28;20041;-64
2023/08/08 08:47:31;;;;;;;3.40;0.30;;;17.40;99.90;;;;;;5028472;28;20521;-63
2023/08/08 08:49:57;;;;;;;3.40;0.35;;;17.30;99.90;;;;;;5031648;28;20318;-63
2023/08/08 08:52:23;;;;;;;5.25;0.40;;;17.40;99.90;;;;;;5031482;28;20449;-64
2023/08/08 08:54:51;;;;;;;6.05;0.45;;;17.30;99.90;;;;;;5032247;28;20463;-63
2023/08/08 08:57:17;;;;;;;2.92;0.30;;;17.20;99.90;;;;;;5015400;28;20518;-64
2023/08/08 08:59:43;;;;;;;4.40;0.35;;;17.10;99.90;;;;;;5031789;28;20048;-63
2023/08/08 09:02:10;;;;;;;3.17;0.20;;;17.20;99.90;;;;;;5031654;28;20041;-63
2023/08/08 09:04:36;;;;;;;2.92;0.40;;;17.40;99.90;;;;;;5031138;28;20324;-63
2023/08/08 09:07:05;;;;;;;3.42;0.22;;;17.60;99.90;;;;;;5015210;28;20391;-63
2023/08/08 09:09:34;;;;;;;3.50;0.30;;;17.90;99.90;;;;;;5015934;28;20411;-63
2023/08/08 09:12:03;;;;;;;3.58;0.20;;;17.70;99.90;;;;;;5031003;28;20491;-62
2023/08/08 09:14:29;;;;;;;3.25;0.30;;;17.30;99.90;;;;;;5037547;28;20121;-63
2023/08/08 09:16:55;;;;;;;5.43;0.57;;;17.00;99.90;;;;;;5035529;28;20091;-64
2023/08/08 09:19:21;;;;;;;4.30;0.30;;;17.00;99.90;;;;;;5039409;28;20224;-63
2023/08/08 09:21:48;;;;;;;7.38;1.27;;;17.00;99.90;;;;;;5037875;28;20079;-64
2023/08/08 09:24:14;;;;;;;7.32;0.47;;;17.00;99.90;;;;;;5039538;28;20139;-63
2023/08/08 09:26:40;;;;;;;3.38;0.30;;;16.90;99.90;;;;;;5032960;28;20675;-63
2023/08/08 09:29:06;;;;;;;2.83;0.40;;;16.80;99.90;;;;;;5035487;28;20072;-62
2023/08/08 09:31:34;;;;;;;3.45;0.30;;;16.40;99.90;;;;;;5033230;28;20036;-64
2023/08/08 09:34:03;;;;;;;2.85;0.30;;;15.80;99.90;;;;;;5037197;28;20032;-64
2023/08/08 09:36:28;;;;;;;3.30;0.22;;;15.50;99.90;;;;;;5038184;28;20475;-62
2023/08/08 09:38:55;;;;;;;2.72;0.40;;;15.50;99.90;;;;;;5026838;28;20176;-63
2023/08/08 09:41:22;;;;;;;2.45;0.22;;;15.50;99.90;;;;;;5034484;28;20048;-64
2023/08/08 09:43:48;;;;;;;4.35;0.32;;;15.70;99.90;;;;;;5040565;28;20033;-63
2023/08/08 09:46:15;;;;;;;5.45;0.45;;;15.70;99.90;;;;;;5036094;28;20052;-62
2023/08/08 09:48:42;;;;;;;6.20;0.60;;;15.60;99.90;;;;;;5039601;28;20037;-63
2023/08/08 09:51:08;;;;;;;5.80;0.50;;;15.70;99.90;;;;;;5019391;28;20307;-63
2023/08/08 09:53:34;;;;;;;6.93;0.80;;;16.30;99.90;;;;;;5037096;28;20109;-63
2023/08/08 09:56:03;;;;;;;5.18;0.38;;;17.20;99.90;;;;;;5037085;28;20036;-63
2023/08/08 09:58:30;;;;;;;6.18;0.50;;;17.60;99.90;;;;;;5039773;28;20604;-65
2023/08/08 10:00:56;;;;;;;4.95;0.30;;;16.60;99.90;;;;;;5025378;28;20646;-62
2023/08/08 10:03:22;;;;;;;3.38;0.35;;;15.80;99.90;;;;;;5039327;28;20131;-63
2023/08/08 10:05:48;;;;;;;2.67;0.30;;;15.30;99.90;;;;;;5041246;28;20075;-63
2023/08/08 10:08:18;;;;;;;3.90;0.40;;;15.60;99.90;;;;;;5022900;28;20071;-64
2023/08/08 10:10:46;;;;;;;2.80;0.40;;;16.10;99.90;;;;;;5041757;28;20048;-62
2023/08/08 10:13:22;;;;;;;3.60;0.40;;;16.70;99.90;;;;;;5040072;28;20122;-65
2023/08/08 10:15:49;;;;;;;2.88;0.30;;;17.20;99.90;;;;;;5040753;28;20081;-63
2023/08/08 10:18:15;;;;;;;5.57;0.30;;;17.20;99.90;;;;;;4992324;28;20228;-64
2023/08/08 10:20:47;;;;;;;4.68;0.40;;;17.10;99.90;;;;;;5042111;28;20383;-64
2023/08/08 10:23:16;;;;;;;3.65;0.40;;;17.40;99.90;;;;;;5039621;28;20487;-63
2023/08/08 10:25:50;;;;;;;2.85;0.30;;;18.10;99.90;;;;;;5041595;28;20123;-64
2023/08/08 10:28:20;;;;;;;2.92;0.30;;;18.50;99.90;;;;;;5040209;28;20502;-64
2023/08/08 10:30:47;;;;;;;5.32;0.30;;;18.40;99.90;;;;;;5039548;28;20102;-64
2023/08/08 10:33:27;;;;;;;2.22;0.22;;;18.00;99.90;;;;;;5038512;28;20059;-62
2023/08/08 10:36:00;;;;;;;4.47;0.40;;;17.50;99.90;;;;;;5041020;28;20190;-64
2023/08/08 10:38:38;;;;;;;2.58;0.25;;;17.00;99.90;;;;;;5039432;28;20069;-63
2023/08/08 10:41:04;;;;;;;5.78;0.50;;;17.30;99.90;;;;;;5039965;28;20091;-63
2023/08/08 10:43:30;;;;;;;4.63;0.30;;;18.10;99.90;;;;;;5042054;28;20526;-64
2023/08/08 10:46:03;;;;;;;4.50;0.55;;;18.70;99.90;;;;;;5039877;28;20037;-64
2023/08/08 10:48:29;;;;;;;2.78;0.32;;;19.00;89.00;;;;;;5040838;28;20047;-63
2023/08/08 10:50:59;;;;;;;3.25;0.20;;;19.30;79.10;;;;;;5040193;28;20037;-64
2023/08/08 10:53:29;;;;;;;6.03;0.32;;;19.60;15.30;;;;;;5016620;28;20221;-63
2023/08/08 10:56:02;;;;;;;2.83;0.30;;;19.60;1.00;;;;;;5040206;28;20039;-62
2023/08/08 10:58:36;;;;;;;4.25;0.30;;;19.70;1.00;;;;;;5037207;28;20501;-63
2023/08/08 11:01:05;;;;;;;6.80;0.52;;;19.90;1.00;;;;;;5039357;28;20102;-63
2023/08/08 11:03:32;;;;;;;6.22;0.40;;;19.90;1.00;;;;;;5038044;28;20048;-63
2023/08/08 11:05:59;;;;;;;2.45;0.28;;;19.40;1.00;;;;;;5023045;28;20093;-64
2023/08/08 11:08:24;;;;;;;2.42;0.40;;;18.90;1.00;;;;;;5014290;28;20124;-64
2023/08/08 11:10:53;;;;;;;4.07;0.45;;;18.50;8.50;;;;;;5023820;28;20039;-63
2023/08/08 11:13:20;;;;;;;4.00;0.40;;;18.10;24.40;;;;;;5038252;28;20826;-64
2023/08/08 11:15:46;;;;;;;4.30;0.30;;;17.90;31.70;;;;;;5038972;28;20486;-64
2023/08/08 11:18:12;;;;;;;2.70;0.40;;;17.60;33.30;;;;;;5038820;28;20102;-64
2023/08/08 11:20:39;;;;;;;5.00;0.35;;;18.00;28.20;;;;;;5021945;28;20326;-64
2023/08/08 11:23:09;;;;;;;2.75;0.35;;;18.80;18.10;;;;;;5039597;28;20424;-64
2023/08/08 11:25:36;;;;;;;3.35;0.50;;;19.50;8.00;;;;;;5024070;28;20045;-64
2023/08/08 11:28:02;;;;;;;3.88;0.40;;;19.40;2.10;;;;;;5040103;28;20581;-64
2023/08/08 11:30:32;;;;;;;3.60;0.43;;;19.10;1.90;;;;;;5037247;28;20036;-64
2023/08/08 11:32:59;;;;;;;3.70;0.35;;;18.70;1.70;;;;;;5038708;28;20057;-64
2023/08/08 11:35:29;;;;;;;6.57;0.40;;;18.30;7.40;;;;;;5029404;28;20041;-63
2023/08/08 11:37:57;;;;;;;6.07;0.47;;;17.90;29.40;;;;;;5029227;28;20255;-64
2023/08/08 11:40:24;;;;;;;3.85;0.60;;;17.60;38.70;;;;;;5032110;28;20044;-65
2023/08/08 11:42:51;;;;;;;4.32;0.30;;;17.60;38.90;;;;;;5035003;28;20044;-63
2023/08/08 11:45:18;;;;;;;3.47;0.32;;;17.60;48.30;;;;;;5033161;28;20384;-64
2023/08/08 11:47:47;;;;;;;5.53;0.40;;;18.20;45.00;;;;;;5004110;28;20944;-63
2023/08/08 11:50:13;;;;;;;5.72;0.40;;;19.10;24.70;;;;;;5038739;28;20126;-63
2023/08/08 11:52:45;;;;;;;4.55;0.40;;;19.80;25.60;;;;;;5019414;28;20044;-63
2023/08/08 11:55:11;;;;;;;6.43;0.50;;;19.90;1.00;;;;;;5033629;28;20147;-64
2023/08/08 11:57:41;;;;;;;4.75;0.55;;;19.70;1.00;;;;;;5017651;28;20041;-63
2023/08/08 12:00:09;;;;;;;6.28;0.50;;;19.60;4.20;;;;;;5040213;28;20064;-64
2023/08/08 12:02:35;;;;;;;5.65;0.40;;;19.50;1.00;;;;;;5035051;28;20686;-64
2023/08/08 12:05:05;;;;;;;4.43;0.50;;;19.40;1.80;;;;;;5023747;28;20209;-64
2023/08/08 12:07:35;;;;;;;5.18;0.40;;;18.80;24.50;;;;;;5035253;28;20174;-64
2023/08/08 12:10:04;;;;;;;4.15;0.30;;;17.60;99.50;;;;;;5025036;28;20580;-64
2023/08/08 12:12:33;;;;;;;3.88;0.30;;;17.40;99.90;;;;;;5034859;28;20607;-63
2023/08/08 12:15:03;;;;;;;2.53;0.30;;;17.20;99.90;;;;;;5022243;28;20526;-62
2023/08/08 12:17:29;;;;;;;3.15;0.30;;;17.20;99.90;;;;;;5037201;28;20044;-62
2023/08/08 12:19:59;;;;;;;3.33;0.30;;;17.50;99.90;;;;;;5046916;28;20045;-63
2023/08/08 12:22:25;;;;;;;4.70;0.40;;;18.20;99.90;;;;;;5021458;28;20049;-62
2023/08/08 12:24:50;;;;;;;3.58;0.47;;;18.40;94.40;;;;;;5039803;28;20036;-63
2023/08/08 12:27:16;;;;;;;5.85;0.40;;;18.30;66.80;;;;;;5001280;28;20025;-62
2023/08/08 12:29:42;;;;;;;3.30;0.40;;;18.90;77.00;;;;;;5038254;28;20225;-63
2023/08/08 12:32:08;;;;;;;6.53;0.30;;;19.10;57.00;;;;;;5020917;28;20431;-64
2023/08/08 12:34:34;;;;;;;5.78;0.40;;;19.00;33.70;;;;;;5022066;28;20049;-64
2023/08/08 12:37:01;;;;;;;3.67;0.40;;;19.10;22.00;;;;;;4999462;28;20056;-63
2023/08/08 12:39:26;;;;;;;4.00;0.55;;;19.20;7.80;;;;;;5038590;28;20137;-62
2023/08/08 12:41:52;;;;;;;6.15;0.30;;;19.20;15.70;;;;;;5037838;28;20132;-63
2023/08/08 12:44:17;;;;;;;6.50;0.40;;;19.70;8.40;;;;;;5021397;28;20311;-64